sensor_id;sensor_type;location;lat;lon;timestamp;P1;durP1;ratioP1;P2;durP2;ratioP2
56122;SDS011;42426;46.104;19.656;2023-02-26T00:02:09;8.57;;;5.75;;
56122;SDS011;42426;46.104;19.656;2023-02-26T00:04:35;12.18;;;7.32;;
56122;SDS011;42426;46.104;19.656;2023-02-26T00:07:03;15.13;;;8.85;;
56122;SDS011;42426;46.104;19.656;2023-02-26T00:09:30;12.27;;;7.18;;
56122;SDS011;42426;46.104;19.656;2023-02-26T00:11:57;9.13;;;5.97;;
56122;SDS011;42426;46.104;19.656;2023-02-26T00:14:24;9.35;;;5.95;;
56122;SDS011;42426;46.104;19.656;2023-02-26T00:17:05;10.93;;;6.88;;
56122;SDS011;42426;46.104;19.656;2023-02-26T00:19:52;12.13;;;5.80;;
56122;SDS011;42426;46.104;19.656;2023-02-26T00:22:18;10.35;;;7.07;;
56122;SDS011;42426;46.104;19.656;2023-02-26T00:24:44;8.05;;;4.97;;
56122;SDS011;42426;46.104;19.656;2023-02-26T00:27:10;11.60;;;6.63;;
56122;SDS011;42426;46.104;19.656;2023-02-26T00:29:36;10.10;;;6.35;;
56122;SDS011;42426;46.104;19.656;2023-02-26T00:32:03;10.70;;;6.05;;
56122;SDS011;42426;46.104;19.656;2023-02-26T00:34:29;9.85;;;5.40;;
56122;SDS011;42426;46.104;19.656;2023-02-26T00:39:35;9.23;;;4.63;;
56122;SDS011;42426;46.104;19.656;2023-02-26T00:42:10;7.20;;;4.60;;
56122;SDS011;42426;46.104;19.656;2023-02-26T00:44:36;10.80;;;5.07;;
56122;SDS011;42426;46.104;19.656;2023-02-26T00:47:07;11.10;;;6.55;;
56122;SDS011;42426;46.104;19.656;2023-02-26T00:49:54;13.75;;;7.10;;
56122;SDS011;42426;46.104;19.656;2023-02-26T00:55:22;12.77;;;7.40;;
56122;SDS011;42426;46.104;19.656;2023-02-26T00:57:47;11.02;;;6.30;;
56122;SDS011;42426;46.104;19.656;2023-02-26T01:00:13;10.50;;;6.03;;
56122;SDS011;42426;46.104;19.656;2023-02-26T01:02:40;10.98;;;6.53;;
56122;SDS011;42426;46.104;19.656;2023-02-26T01:05:06;11.68;;;7.50;;
56122;SDS011;42426;46.104;19.656;2023-02-26T01:07:37;12.98;;;7.13;;
56122;SDS011;42426;46.104;19.656;2023-02-26T01:10:25;12.00;;;7.38;;
56122;SDS011;42426;46.104;19.656;2023-02-26T01:12:52;12.90;;;7.70;;
56122;SDS011;42426;46.104;19.656;2023-02-26T01:15:18;15.63;;;7.90;;
56122;SDS011;42426;46.104;19.656;2023-02-26T01:17:46;16.05;;;9.60;;
56122;SDS011;42426;46.104;19.656;2023-02-26T01:20:19;17.27;;;8.43;;
56122;SDS011;42426;46.104;19.656;2023-02-26T01:25:37;13.60;;;8.15;;
56122;SDS011;42426;46.104;19.656;2023-02-26T01:28:18;14.13;;;8.90;;
56122;SDS011;42426;46.104;19.656;2023-02-26T01:30:45;12.48;;;7.28;;
56122;SDS011;42426;46.104;19.656;2023-02-26T01:36:08;8.65;;;5.75;;
56122;SDS011;42426;46.104;19.656;2023-02-26T01:49:30;9.73;;;5.28;;
56122;SDS011;42426;46.104;19.656;2023-02-26T01:51:57;9.38;;;4.93;;
56122;SDS011;42426;46.104;19.656;2023-02-26T01:54:38;10.45;;;6.75;;
56122;SDS011;42426;46.104;19.656;2023-02-26T01:57:11;8.20;;;6.43;;
56122;SDS011;42426;46.104;19.656;2023-02-26T01:59:41;9.63;;;5.78;;
56122;SDS011;42426;46.104;19.656;2023-02-26T02:02:10;7.35;;;5.40;;
56122;SDS011;42426;46.104;19.656;2023-02-26T02:04:40;9.18;;;5.72;;
56122;SDS011;42426;46.104;19.656;2023-02-26T02:07:06;12.27;;;6.18;;
56122;SDS011;42426;46.104;19.656;2023-02-26T02:09:32;10.52;;;6.43;;
56122;SDS011;42426;46.104;19.656;2023-02-26T02:14:55;8.40;;;6.15;;
56122;SDS011;42426;46.104;19.656;2023-02-26T02:27:57;10.27;;;6.10;;
56122;SDS011;42426;46.104;19.656;2023-02-26T02:33:27;6.47;;;4.95;;
56122;SDS011;42426;46.104;19.656;2023-02-26T02:35:59;6.95;;;4.40;;
56122;SDS011;42426;46.104;19.656;2023-02-26T02:44:03;7.22;;;3.70;;
56122;SDS011;42426;46.104;19.656;2023-02-26T02:46:33;5.53;;;3.58;;
56122;SDS011;42426;46.104;19.656;2023-02-26T02:49:10;4.95;;;3.22;;
56122;SDS011;42426;46.104;19.656;2023-02-26T02:51:43;5.35;;;3.47;;
56122;SDS011;42426;46.104;19.656;2023-02-26T02:54:16;6.13;;;3.40;;
56122;SDS011;42426;46.104;19.656;2023-02-26T02:56:55;4.78;;;3.38;;
56122;SDS011;42426;46.104;19.656;2023-02-26T02:59:41;4.05;;;3.05;;
56122;SDS011;42426;46.104;19.656;2023-02-26T03:02:17;6.47;;;3.38;;
56122;SDS011;42426;46.104;19.656;2023-02-26T03:04:45;5.18;;;3.70;;
56122;SDS011;42426;46.104;19.656;2023-02-26T03:07:11;4.13;;;2.55;;
56122;SDS011;42426;46.104;19.656;2023-02-26T03:09:37;4.78;;;3.00;;
56122;SDS011;42426;46.104;19.656;2023-02-26T03:12:03;4.95;;;3.40;;
56122;SDS011;42426;46.104;19.656;2023-02-26T03:14:29;5.32;;;3.38;;
56122;SDS011;42426;46.104;19.656;2023-02-26T03:22:16;3.70;;;2.95;;
56122;SDS011;42426;46.104;19.656;2023-02-26T03:25:21;4.78;;;3.10;;
56122;SDS011;42426;46.104;19.656;2023-02-26T03:33:19;4.38;;;3.60;;
56122;SDS011;42426;46.104;19.656;2023-02-26T03:35:53;4.70;;;3.80;;
56122;SDS011;42426;46.104;19.656;2023-02-26T03:41:24;5.68;;;3.40;;
56122;SDS011;42426;46.104;19.656;2023-02-26T03:44:03;4.55;;;3.40;;
56122;SDS011;42426;46.104;19.656;2023-02-26T03:46:57;4.90;;;3.67;;
56122;SDS011;42426;46.104;19.656;2023-02-26T03:49:37;5.05;;;3.85;;
56122;SDS011;42426;46.104;19.656;2023-02-26T03:52:19;6.65;;;3.88;;
56122;SDS011;42426;46.104;19.656;2023-02-26T03:54:50;6.15;;;4.03;;
56122;SDS011;42426;46.104;19.656;2023-02-26T03:57:37;6.28;;;4.03;;
56122;SDS011;42426;46.104;19.656;2023-02-26T04:00:05;8.38;;;4.38;;
56122;SDS011;42426;46.104;19.656;2023-02-26T04:02:43;6.82;;;3.70;;
56122;SDS011;42426;46.104;19.656;2023-02-26T04:05:16;8.03;;;4.00;;
56122;SDS011;42426;46.104;19.656;2023-02-26T04:07:44;8.32;;;4.07;;
56122;SDS011;42426;46.104;19.656;2023-02-26T04:10:15;6.00;;;4.28;;
56122;SDS011;42426;46.104;19.656;2023-02-26T04:12:49;7.28;;;4.07;;
56122;SDS011;42426;46.104;19.656;2023-02-26T04:15:14;6.82;;;4.22;;
56122;SDS011;42426;46.104;19.656;2023-02-26T04:17:40;7.47;;;4.18;;
56122;SDS011;42426;46.104;19.656;2023-02-26T04:20:06;7.70;;;4.45;;
56122;SDS011;42426;46.104;19.656;2023-02-26T04:22:34;5.70;;;3.85;;
56122;SDS011;42426;46.104;19.656;2023-02-26T04:25:00;4.75;;;3.95;;
56122;SDS011;42426;46.104;19.656;2023-02-26T04:27:25;6.35;;;4.00;;
56122;SDS011;42426;46.104;19.656;2023-02-26T04:29:51;5.28;;;3.58;;
56122;SDS011;42426;46.104;19.656;2023-02-26T04:32:16;6.53;;;4.57;;
56122;SDS011;42426;46.104;19.656;2023-02-26T04:34:44;6.32;;;4.43;;
56122;SDS011;42426;46.104;19.656;2023-02-26T04:37:10;5.53;;;4.13;;
56122;SDS011;42426;46.104;19.656;2023-02-26T04:39:35;5.45;;;4.60;;
56122;SDS011;42426;46.104;19.656;2023-02-26T04:42:01;8.60;;;5.15;;
56122;SDS011;42426;46.104;19.656;2023-02-26T04:44:28;7.25;;;5.25;;
56122;SDS011;42426;46.104;19.656;2023-02-26T04:46:54;7.70;;;4.75;;
56122;SDS011;42426;46.104;19.656;2023-02-26T04:49:21;6.20;;;4.70;;
56122;SDS011;42426;46.104;19.656;2023-02-26T04:51:46;6.45;;;4.78;;
56122;SDS011;42426;46.104;19.656;2023-02-26T04:54:12;6.38;;;4.55;;
56122;SDS011;42426;46.104;19.656;2023-02-26T04:56:38;8.13;;;5.10;;
56122;SDS011;42426;46.104;19.656;2023-02-26T04:59:03;6.45;;;5.07;;
56122;SDS011;42426;46.104;19.656;2023-02-26T05:01:29;10.05;;;5.50;;
56122;SDS011;42426;46.104;19.656;2023-02-26T05:03:55;7.07;;;4.78;;
56122;SDS011;42426;46.104;19.656;2023-02-26T05:06:21;7.05;;;4.63;;
56122;SDS011;42426;46.104;19.656;2023-02-26T05:08:46;6.97;;;4.85;;
56122;SDS011;42426;46.104;19.656;2023-02-26T05:11:12;9.32;;;5.05;;
56122;SDS011;42426;46.104;19.656;2023-02-26T05:13:38;9.35;;;6.65;;
56122;SDS011;42426;46.104;19.656;2023-02-26T05:16:04;11.40;;;6.80;;
56122;SDS011;42426;46.104;19.656;2023-02-26T05:18:31;9.20;;;5.18;;
56122;SDS011;42426;46.104;19.656;2023-02-26T05:20:58;9.18;;;6.38;;
56122;SDS011;42426;46.104;19.656;2023-02-26T05:23:24;9.38;;;6.18;;
56122;SDS011;42426;46.104;19.656;2023-02-26T05:25:50;9.15;;;6.40;;
56122;SDS011;42426;46.104;19.656;2023-02-26T05:28:15;9.98;;;6.53;;
56122;SDS011;42426;46.104;19.656;2023-02-26T05:30:41;11.73;;;7.07;;
56122;SDS011;42426;46.104;19.656;2023-02-26T05:33:07;11.85;;;6.40;;
56122;SDS011;42426;46.104;19.656;2023-02-26T05:35:33;10.18;;;6.72;;
56122;SDS011;42426;46.104;19.656;2023-02-26T05:37:59;10.35;;;6.60;;
56122;SDS011;42426;46.104;19.656;2023-02-26T05:40:24;11.10;;;6.60;;
56122;SDS011;42426;46.104;19.656;2023-02-26T05:42:51;11.07;;;6.68;;
56122;SDS011;42426;46.104;19.656;2023-02-26T05:45:17;10.38;;;7.00;;
56122;SDS011;42426;46.104;19.656;2023-02-26T05:47:43;11.93;;;6.68;;
56122;SDS011;42426;46.104;19.656;2023-02-26T05:50:09;11.77;;;7.00;;
56122;SDS011;42426;46.104;19.656;2023-02-26T05:52:35;8.70;;;6.15;;
56122;SDS011;42426;46.104;19.656;2023-02-26T05:55:01;13.57;;;7.55;;
56122;SDS011;42426;46.104;19.656;2023-02-26T05:57:27;11.88;;;8.27;;
56122;SDS011;42426;46.104;19.656;2023-02-26T05:59:53;11.10;;;7.82;;
56122;SDS011;42426;46.104;19.656;2023-02-26T06:02:19;10.77;;;7.22;;
56122;SDS011;42426;46.104;19.656;2023-02-26T06:04:44;9.50;;;7.20;;
56122;SDS011;42426;46.104;19.656;2023-02-26T06:07:10;13.07;;;8.05;;
56122;SDS011;42426;46.104;19.656;2023-02-26T06:09:36;10.80;;;7.13;;
56122;SDS011;42426;46.104;19.656;2023-02-26T06:12:02;13.00;;;8.20;;
56122;SDS011;42426;46.104;19.656;2023-02-26T06:14:27;15.20;;;9.48;;
56122;SDS011;42426;46.104;19.656;2023-02-26T06:16:54;13.85;;;8.27;;
56122;SDS011;42426;46.104;19.656;2023-02-26T06:19:19;14.13;;;9.15;;
56122;SDS011;42426;46.104;19.656;2023-02-26T06:21:45;17.80;;;9.85;;
56122;SDS011;42426;46.104;19.656;2023-02-26T06:24:11;14.73;;;8.52;;
56122;SDS011;42426;46.104;19.656;2023-02-26T06:26:37;23.75;;;13.98;;
56122;SDS011;42426;46.104;19.656;2023-02-26T06:29:03;23.05;;;13.50;;
56122;SDS011;42426;46.104;19.656;2023-02-26T06:31:29;18.75;;;10.27;;
56122;SDS011;42426;46.104;19.656;2023-02-26T06:33:54;15.35;;;10.27;;
56122;SDS011;42426;46.104;19.656;2023-02-26T06:36:20;14.82;;;10.10;;
56122;SDS011;42426;46.104;19.656;2023-02-26T06:38:46;14.88;;;9.25;;
56122;SDS011;42426;46.104;19.656;2023-02-26T06:41:14;17.55;;;9.85;;
56122;SDS011;42426;46.104;19.656;2023-02-26T06:43:40;11.82;;;8.32;;
56122;SDS011;42426;46.104;19.656;2023-02-26T06:46:06;13.20;;;9.30;;
56122;SDS011;42426;46.104;19.656;2023-02-26T06:48:31;16.30;;;9.88;;
56122;SDS011;42426;46.104;19.656;2023-02-26T06:50:57;12.45;;;7.78;;
56122;SDS011;42426;46.104;19.656;2023-02-26T06:53:23;13.98;;;8.05;;
56122;SDS011;42426;46.104;19.656;2023-02-26T06:55:50;11.43;;;7.82;;
56122;SDS011;42426;46.104;19.656;2023-02-26T06:58:17;9.32;;;6.32;;
56122;SDS011;42426;46.104;19.656;2023-02-26T07:00:43;8.45;;;5.45;;
56122;SDS011;42426;46.104;19.656;2023-02-26T07:03:10;9.40;;;5.65;;
56122;SDS011;42426;46.104;19.656;2023-02-26T07:05:38;9.55;;;6.68;;
56122;SDS011;42426;46.104;19.656;2023-02-26T07:08:04;9.63;;;5.78;;
56122;SDS011;42426;46.104;19.656;2023-02-26T07:10:31;9.13;;;6.13;;
56122;SDS011;42426;46.104;19.656;2023-02-26T07:12:57;10.75;;;6.80;;
56122;SDS011;42426;46.104;19.656;2023-02-26T07:15:23;8.10;;;5.88;;
56122;SDS011;42426;46.104;19.656;2023-02-26T07:17:48;11.07;;;7.10;;
56122;SDS011;42426;46.104;19.656;2023-02-26T07:20:14;10.25;;;6.80;;
56122;SDS011;42426;46.104;19.656;2023-02-26T07:22:42;10.02;;;6.82;;
56122;SDS011;42426;46.104;19.656;2023-02-26T07:25:09;12.15;;;8.13;;
56122;SDS011;42426;46.104;19.656;2023-02-26T07:27:35;11.15;;;6.63;;
56122;SDS011;42426;46.104;19.656;2023-02-26T07:30:02;11.50;;;6.55;;
56122;SDS011;42426;46.104;19.656;2023-02-26T07:32:29;12.73;;;8.80;;
56122;SDS011;42426;46.104;19.656;2023-02-26T07:34:55;13.10;;;9.00;;
56122;SDS011;42426;46.104;19.656;2023-02-26T07:37:21;11.25;;;7.60;;
56122;SDS011;42426;46.104;19.656;2023-02-26T07:39:47;12.07;;;9.02;;
56122;SDS011;42426;46.104;19.656;2023-02-26T07:42:12;14.32;;;9.75;;
56122;SDS011;42426;46.104;19.656;2023-02-26T07:44:38;18.27;;;12.13;;
56122;SDS011;42426;46.104;19.656;2023-02-26T07:47:04;15.75;;;11.30;;
56122;SDS011;42426;46.104;19.656;2023-02-26T07:49:30;12.35;;;9.00;;
56122;SDS011;42426;46.104;19.656;2023-02-26T07:51:57;15.38;;;9.15;;
56122;SDS011;42426;46.104;19.656;2023-02-26T07:54:23;14.45;;;8.65;;
56122;SDS011;42426;46.104;19.656;2023-02-26T07:56:49;11.85;;;8.95;;
56122;SDS011;42426;46.104;19.656;2023-02-26T07:59:15;12.77;;;9.57;;
56122;SDS011;42426;46.104;19.656;2023-02-26T08:01:41;15.55;;;9.75;;
56122;SDS011;42426;46.104;19.656;2023-02-26T08:04:07;15.88;;;10.27;;
56122;SDS011;42426;46.104;19.656;2023-02-26T08:06:33;13.90;;;9.88;;
56122;SDS011;42426;46.104;19.656;2023-02-26T08:08:59;17.40;;;11.00;;
56122;SDS011;42426;46.104;19.656;2023-02-26T08:11:25;16.35;;;11.07;;
56122;SDS011;42426;46.104;19.656;2023-02-26T08:13:51;14.32;;;10.85;;
56122;SDS011;42426;46.104;19.656;2023-02-26T08:16:17;16.08;;;11.43;;
56122;SDS011;42426;46.104;19.656;2023-02-26T08:18:43;15.57;;;10.23;;
56122;SDS011;42426;46.104;19.656;2023-02-26T08:21:09;14.80;;;10.88;;
56122;SDS011;42426;46.104;19.656;2023-02-26T08:23:35;15.60;;;11.05;;
56122;SDS011;42426;46.104;19.656;2023-02-26T08:26:02;17.48;;;11.18;;
56122;SDS011;42426;46.104;19.656;2023-02-26T08:28:29;19.38;;;13.65;;
56122;SDS011;42426;46.104;19.656;2023-02-26T08:30:55;18.10;;;10.90;;
56122;SDS011;42426;46.104;19.656;2023-02-26T08:33:21;17.35;;;11.13;;
56122;SDS011;42426;46.104;19.656;2023-02-26T08:35:47;18.08;;;11.32;;
56122;SDS011;42426;46.104;19.656;2023-02-26T08:38:13;15.38;;;10.90;;
56122;SDS011;42426;46.104;19.656;2023-02-26T08:40:39;17.23;;;11.20;;
56122;SDS011;42426;46.104;19.656;2023-02-26T08:43:05;17.23;;;11.73;;
56122;SDS011;42426;46.104;19.656;2023-02-26T08:45:31;12.60;;;9.77;;
56122;SDS011;42426;46.104;19.656;2023-02-26T08:47:56;17.25;;;11.27;;
56122;SDS011;42426;46.104;19.656;2023-02-26T08:50:22;17.15;;;11.00;;
56122;SDS011;42426;46.104;19.656;2023-02-26T08:52:49;15.27;;;9.55;;
56122;SDS011;42426;46.104;19.656;2023-02-26T08:55:15;13.27;;;10.45;;
56122;SDS011;42426;46.104;19.656;2023-02-26T08:57:41;15.98;;;10.30;;
56122;SDS011;42426;46.104;19.656;2023-02-26T09:00:06;14.73;;;10.48;;
56122;SDS011;42426;46.104;19.656;2023-02-26T09:02:35;15.32;;;9.52;;
56122;SDS011;42426;46.104;19.656;2023-02-26T09:05:02;15.07;;;10.43;;
56122;SDS011;42426;46.104;19.656;2023-02-26T09:07:28;16.65;;;10.70;;
56122;SDS011;42426;46.104;19.656;2023-02-26T09:09:54;15.38;;;10.75;;
56122;SDS011;42426;46.104;19.656;2023-02-26T09:12:19;15.32;;;10.00;;
56122;SDS011;42426;46.104;19.656;2023-02-26T09:14:45;15.88;;;10.43;;
56122;SDS011;42426;46.104;19.656;2023-02-26T09:17:11;14.65;;;10.10;;
56122;SDS011;42426;46.104;19.656;2023-02-26T09:19:36;12.70;;;8.73;;
56122;SDS011;42426;46.104;19.656;2023-02-26T09:22:03;19.08;;;10.43;;
56122;SDS011;42426;46.104;19.656;2023-02-26T09:24:28;13.18;;;8.45;;
56122;SDS011;42426;46.104;19.656;2023-02-26T09:26:54;15.85;;;9.73;;
56122;SDS011;42426;46.104;19.656;2023-02-26T09:29:20;13.55;;;8.82;;
56122;SDS011;42426;46.104;19.656;2023-02-26T09:31:45;15.43;;;9.70;;
56122;SDS011;42426;46.104;19.656;2023-02-26T09:34:11;15.68;;;10.60;;
56122;SDS011;42426;46.104;19.656;2023-02-26T09:36:38;13.95;;;11.15;;
56122;SDS011;42426;46.104;19.656;2023-02-26T09:39:05;12.00;;;8.43;;
56122;SDS011;42426;46.104;19.656;2023-02-26T09:41:37;12.90;;;9.15;;
56122;SDS011;42426;46.104;19.656;2023-02-26T09:44:24;13.35;;;8.43;;
56122;SDS011;42426;46.104;19.656;2023-02-26T09:47:04;13.70;;;9.60;;
56122;SDS011;42426;46.104;19.656;2023-02-26T09:52:21;14.77;;;8.88;;
56122;SDS011;42426;46.104;19.656;2023-02-26T09:55:02;11.30;;;7.50;;
56122;SDS011;42426;46.104;19.656;2023-02-26T09:57:48;12.65;;;8.90;;
56122;SDS011;42426;46.104;19.656;2023-02-26T10:05:39;16.83;;;10.25;;
56122;SDS011;42426;46.104;19.656;2023-02-26T10:08:14;15.02;;;9.73;;
56122;SDS011;42426;46.104;19.656;2023-02-26T10:13:27;15.65;;;9.02;;
56122;SDS011;42426;46.104;19.656;2023-02-26T10:16:04;13.93;;;8.57;;
56122;SDS011;42426;46.104;19.656;2023-02-26T10:18:36;10.05;;;7.50;;
56122;SDS011;42426;46.104;19.656;2023-02-26T10:21:12;14.85;;;8.07;;
56122;SDS011;42426;46.104;19.656;2023-02-26T10:23:59;18.60;;;8.75;;
56122;SDS011;42426;46.104;19.656;2023-02-26T10:26:49;13.73;;;9.75;;
56122;SDS011;42426;46.104;19.656;2023-02-26T10:29:34;17.52;;;10.38;;
56122;SDS011;42426;46.104;19.656;2023-02-26T10:37:19;13.77;;;9.07;;
56122;SDS011;42426;46.104;19.656;2023-02-26T10:40:08;16.80;;;9.82;;
56122;SDS011;42426;46.104;19.656;2023-02-26T10:43:21;12.65;;;8.35;;
56122;SDS011;42426;46.104;19.656;2023-02-26T10:45:46;13.10;;;9.30;;
56122;SDS011;42426;46.104;19.656;2023-02-26T10:51:31;11.82;;;8.15;;
56122;SDS011;42426;46.104;19.656;2023-02-26T10:54:01;13.27;;;8.90;;
56122;SDS011;42426;46.104;19.656;2023-02-26T10:56:36;12.10;;;8.90;;
56122;SDS011;42426;46.104;19.656;2023-02-26T10:59:01;14.05;;;9.20;;
56122;SDS011;42426;46.104;19.656;2023-02-26T11:01:28;17.92;;;12.35;;
56122;SDS011;42426;46.104;19.656;2023-02-26T11:06:46;17.33;;;11.45;;
56122;SDS011;42426;46.104;19.656;2023-02-26T11:12:00;17.05;;;10.98;;
56122;SDS011;42426;46.104;19.656;2023-02-26T11:14:29;17.70;;;10.73;;
56122;SDS011;42426;46.104;19.656;2023-02-26T11:16:58;16.20;;;10.43;;
56122;SDS011;42426;46.104;19.656;2023-02-26T11:19:32;18.63;;;10.77;;
56122;SDS011;42426;46.104;19.656;2023-02-26T11:22:02;15.30;;;9.40;;
56122;SDS011;42426;46.104;19.656;2023-02-26T11:26:57;25.83;;;13.75;;
56122;SDS011;42426;46.104;19.656;2023-02-26T11:29:28;21.05;;;11.85;;
56122;SDS011;42426;46.104;19.656;2023-02-26T11:32:04;18.85;;;10.13;;
56122;SDS011;42426;46.104;19.656;2023-02-26T11:34:30;20.23;;;11.10;;
56122;SDS011;42426;46.104;19.656;2023-02-26T11:36:57;14.60;;;9.48;;
56122;SDS011;42426;46.104;19.656;2023-02-26T11:39:28;14.57;;;9.73;;
56122;SDS011;42426;46.104;19.656;2023-02-26T11:41:59;24.10;;;14.38;;
56122;SDS011;42426;46.104;19.656;2023-02-26T11:47:19;25.13;;;15.68;;
56122;SDS011;42426;46.104;19.656;2023-02-26T11:49:53;44.67;;;23.23;;
56122;SDS011;42426;46.104;19.656;2023-02-26T11:55:04;19.08;;;12.65;;
56122;SDS011;42426;46.104;19.656;2023-02-26T11:57:42;24.52;;;13.52;;
56122;SDS011;42426;46.104;19.656;2023-02-26T12:00:18;16.05;;;9.95;;
56122;SDS011;42426;46.104;19.656;2023-02-26T12:02:47;16.10;;;9.85;;
56122;SDS011;42426;46.104;19.656;2023-02-26T12:05:15;17.13;;;11.13;;
56122;SDS011;42426;46.104;19.656;2023-02-26T12:07:42;16.80;;;10.00;;
56122;SDS011;42426;46.104;19.656;2023-02-26T12:10:17;15.73;;;10.30;;
56122;SDS011;42426;46.104;19.656;2023-02-26T12:15:26;18.45;;;10.43;;
56122;SDS011;42426;46.104;19.656;2023-02-26T12:18:07;21.02;;;13.23;;
56122;SDS011;42426;46.104;19.656;2023-02-26T12:20:54;20.27;;;12.77;;
56122;SDS011;42426;46.104;19.656;2023-02-26T12:31:42;18.38;;;11.55;;
56122;SDS011;42426;46.104;19.656;2023-02-26T12:59:22;15.43;;;10.70;;
56122;SDS011;42426;46.104;19.656;2023-02-26T13:10:23;19.65;;;11.52;;
56122;SDS011;42426;46.104;19.656;2023-02-26T13:21:56;15.60;;;9.05;;
56122;SDS011;42426;46.104;19.656;2023-02-26T13:24:32;17.08;;;10.80;;
56122;SDS011;42426;46.104;19.656;2023-02-26T13:27:02;18.85;;;12.38;;
56122;SDS011;42426;46.104;19.656;2023-02-26T13:29:40;17.63;;;11.10;;
56122;SDS011;42426;46.104;19.656;2023-02-26T13:32:16;19.17;;;11.95;;
56122;SDS011;42426;46.104;19.656;2023-02-26T13:37:30;19.23;;;12.63;;
56122;SDS011;42426;46.104;19.656;2023-02-26T13:43:05;19.55;;;10.80;;
56122;SDS011;42426;46.104;19.656;2023-02-26T13:45:44;16.77;;;9.90;;
56122;SDS011;42426;46.104;19.656;2023-02-26T13:48:21;15.30;;;10.88;;
56122;SDS011;42426;46.104;19.656;2023-02-26T13:53:52;15.27;;;10.50;;
56122;SDS011;42426;46.104;19.656;2023-02-26T13:56:41;17.25;;;11.27;;
56122;SDS011;42426;46.104;19.656;2023-02-26T13:59:35;17.85;;;11.02;;
56122;SDS011;42426;46.104;19.656;2023-02-26T14:04:53;22.13;;;11.98;;
56122;SDS011;42426;46.104;19.656;2023-02-26T14:10:17;21.98;;;14.13;;
56122;SDS011;42426;46.104;19.656;2023-02-26T14:16:09;24.13;;;15.48;;
56122;SDS011;42426;46.104;19.656;2023-02-26T14:21:30;23.00;;;14.30;;
56122;SDS011;42426;46.104;19.656;2023-02-26T14:24:06;25.30;;;17.02;;
56122;SDS011;42426;46.104;19.656;2023-02-26T14:26:38;28.83;;;19.75;;
56122;SDS011;42426;46.104;19.656;2023-02-26T14:29:12;37.40;;;24.95;;
56122;SDS011;42426;46.104;19.656;2023-02-26T14:31:53;32.60;;;22.05;;
56122;SDS011;42426;46.104;19.656;2023-02-26T14:34:34;28.45;;;18.50;;
56122;SDS011;42426;46.104;19.656;2023-02-26T14:37:13;26.88;;;16.17;;
56122;SDS011;42426;46.104;19.656;2023-02-26T14:39:46;26.48;;;16.38;;
56122;SDS011;42426;46.104;19.656;2023-02-26T14:44:47;27.00;;;15.40;;
56122;SDS011;42426;46.104;19.656;2023-02-26T14:47:17;23.10;;;15.07;;
56122;SDS011;42426;46.104;19.656;2023-02-26T14:49:44;23.65;;;15.27;;
56122;SDS011;42426;46.104;19.656;2023-02-26T14:52:27;20.95;;;14.10;;
56122;SDS011;42426;46.104;19.656;2023-02-26T15:00:25;22.55;;;14.20;;
56122;SDS011;42426;46.104;19.656;2023-02-26T15:03:23;18.25;;;10.32;;
56122;SDS011;42426;46.104;19.656;2023-02-26T15:09:08;17.13;;;11.07;;
56122;SDS011;42426;46.104;19.656;2023-02-26T15:21:54;18.35;;;11.88;;
56122;SDS011;42426;46.104;19.656;2023-02-26T15:24:25;20.08;;;12.65;;
56122;SDS011;42426;46.104;19.656;2023-02-26T15:26:56;21.40;;;12.30;;
56122;SDS011;42426;46.104;19.656;2023-02-26T15:29:29;19.25;;;11.88;;
56122;SDS011;42426;46.104;19.656;2023-02-26T15:32:12;21.15;;;13.00;;
56122;SDS011;42426;46.104;19.656;2023-02-26T15:34:44;23.83;;;13.13;;
56122;SDS011;42426;46.104;19.656;2023-02-26T15:37:18;21.33;;;12.93;;
56122;SDS011;42426;46.104;19.656;2023-02-26T15:39:49;17.95;;;10.50;;
56122;SDS011;42426;46.104;19.656;2023-02-26T15:42:16;18.67;;;11.45;;
56122;SDS011;42426;46.104;19.656;2023-02-26T15:44:45;17.58;;;10.98;;
56122;SDS011;42426;46.104;19.656;2023-02-26T15:47:13;17.95;;;10.15;;
56122;SDS011;42426;46.104;19.656;2023-02-26T15:49:41;15.60;;;10.65;;
56122;SDS011;42426;46.104;19.656;2023-02-26T15:52:11;13.57;;;8.90;;
56122;SDS011;42426;46.104;19.656;2023-02-26T15:57:08;17.00;;;10.57;;
56122;SDS011;42426;46.104;19.656;2023-02-26T15:59:36;19.02;;;10.85;;
56122;SDS011;42426;46.104;19.656;2023-02-26T16:02:10;18.63;;;11.02;;
56122;SDS011;42426;46.104;19.656;2023-02-26T16:04:40;17.08;;;11.15;;
56122;SDS011;42426;46.104;19.656;2023-02-26T16:07:10;15.38;;;9.65;;
56122;SDS011;42426;46.104;19.656;2023-02-26T16:09:43;21.48;;;13.18;;
56122;SDS011;42426;46.104;19.656;2023-02-26T16:12:19;16.83;;;11.82;;
56122;SDS011;42426;46.104;19.656;2023-02-26T16:14:51;23.70;;;13.68;;
56122;SDS011;42426;46.104;19.656;2023-02-26T16:17:24;21.55;;;12.55;;
56122;SDS011;42426;46.104;19.656;2023-02-26T16:19:53;19.38;;;12.60;;
56122;SDS011;42426;46.104;19.656;2023-02-26T16:25:18;16.58;;;11.13;;
56122;SDS011;42426;46.104;19.656;2023-02-26T16:27:50;19.15;;;11.23;;
56122;SDS011;42426;46.104;19.656;2023-02-26T16:30:22;17.80;;;10.77;;
56122;SDS011;42426;46.104;19.656;2023-02-26T16:32:51;16.85;;;10.80;;
56122;SDS011;42426;46.104;19.656;2023-02-26T16:35:19;20.20;;;11.88;;
56122;SDS011;42426;46.104;19.656;2023-02-26T16:37:50;21.58;;;11.13;;
56122;SDS011;42426;46.104;19.656;2023-02-26T16:40:22;27.52;;;15.63;;
56122;SDS011;42426;46.104;19.656;2023-02-26T16:45:59;22.33;;;13.35;;
56122;SDS011;42426;46.104;19.656;2023-02-26T16:48:28;21.90;;;13.30;;
56122;SDS011;42426;46.104;19.656;2023-02-26T16:51:09;28.07;;;14.63;;
56122;SDS011;42426;46.104;19.656;2023-02-26T16:53:47;23.95;;;14.35;;
56122;SDS011;42426;46.104;19.656;2023-02-26T16:56:18;21.13;;;13.07;;
56122;SDS011;42426;46.104;19.656;2023-02-26T16:58:53;23.35;;;13.82;;
56122;SDS011;42426;46.104;19.656;2023-02-26T17:01:35;20.90;;;12.48;;
56122;SDS011;42426;46.104;19.656;2023-02-26T17:04:04;22.45;;;13.13;;
56122;SDS011;42426;46.104;19.656;2023-02-26T17:06:31;28.30;;;12.77;;
56122;SDS011;42426;46.104;19.656;2023-02-26T17:09:04;29.17;;;13.75;;
56122;SDS011;42426;46.104;19.656;2023-02-26T17:11:37;22.35;;;13.50;;
56122;SDS011;42426;46.104;19.656;2023-02-26T17:14:21;22.30;;;13.13;;
56122;SDS011;42426;46.104;19.656;2023-02-26T17:16:49;23.08;;;14.27;;
56122;SDS011;42426;46.104;19.656;2023-02-26T17:19:16;19.98;;;12.15;;
56122;SDS011;42426;46.104;19.656;2023-02-26T17:21:54;26.40;;;12.98;;
56122;SDS011;42426;46.104;19.656;2023-02-26T17:24:29;21.58;;;13.43;;
56122;SDS011;42426;46.104;19.656;2023-02-26T17:26:57;22.92;;;12.27;;
56122;SDS011;42426;46.104;19.656;2023-02-26T17:29:30;20.85;;;12.50;;
56122;SDS011;42426;46.104;19.656;2023-02-26T17:31:59;22.02;;;12.25;;
56122;SDS011;42426;46.104;19.656;2023-02-26T17:34:25;20.60;;;12.32;;
56122;SDS011;42426;46.104;19.656;2023-02-26T17:36:51;20.83;;;11.07;;
56122;SDS011;42426;46.104;19.656;2023-02-26T17:39:18;19.00;;;11.55;;
56122;SDS011;42426;46.104;19.656;2023-02-26T17:41:44;17.67;;;11.38;;
56122;SDS011;42426;46.104;19.656;2023-02-26T17:44:10;21.10;;;12.80;;
56122;SDS011;42426;46.104;19.656;2023-02-26T17:46:36;20.38;;;12.82;;
56122;SDS011;42426;46.104;19.656;2023-02-26T17:49:01;21.15;;;12.38;;
56122;SDS011;42426;46.104;19.656;2023-02-26T17:51:27;21.52;;;13.15;;